Time;durP1;ratioP1;P1;durP2;ratioP2;P2;SDS_P1;SDS_P2;PMS_P1;PMS_P2;Temp;Humidity;BMP_temperature;BMP_pressure;BME280_temperature;BME280_humidity;BME280_pressure;Samples;Min_cycle;Max_cycle;Signal;HPM_P1;HPM_P2
2021/03/24 00:00:47;;;;;;;20.08;14.70;;;7.90;1.00;;;;;;4961097;28;20327;-77
2021/03/24 00:03:14;;;;;;;17.40;15.18;;;7.90;1.00;;;;;;4961224;28;20232;-76
2021/03/24 00:05:44;;;;;;;16.98;13.00;;;7.80;1.00;;;;;;4965692;28;20248;-76
2021/03/24 00:08:11;;;;;;;17.35;15.55;;;7.80;1.00;;;;;;4962659;28;20236;-78
2021/03/24 00:10:38;;;;;;;16.55;14.75;;;7.80;1.00;;;;;;4967445;28;20224;-78
2021/03/24 00:13:06;;;;;;;21.02;15.50;;;7.80;1.00;;;;;;4951285;28;20235;-77
2021/03/24 00:15:33;;;;;;;17.38;14.38;;;7.80;1.00;;;;;;4962969;28;20312;-77
2021/03/24 00:18:04;;;;;;;17.20;14.25;;;7.80;1.00;;;;;;4958244;28;20279;-77
2021/03/24 00:20:33;;;;;;;19.02;13.60;;;7.80;1.00;;;;;;4959334;28;20235;-77
2021/03/24 00:23:00;;;;;;;18.92;13.68;;;7.70;1.00;;;;;;4963626;28;20232;-77
2021/03/24 00:25:27;;;;;;;17.45;15.40;;;7.70;1.00;;;;;;4965086;28;20228;-78
2021/03/24 00:27:54;;;;;;;18.70;15.15;;;7.60;1.00;;;;;;4960866;28;20232;-78
2021/03/24 00:30:23;;;;;;;17.23;15.32;;;7.60;1.00;;;;;;4941655;28;20264;-78
2021/03/24 00:32:50;;;;;;;18.60;15.13;;;7.60;1.00;;;;;;4964112;28;20298;-78
2021/03/24 00:35:17;;;;;;;16.27;14.00;;;7.60;1.00;;;;;;4962038;28;20276;-78
2021/03/24 00:37:43;;;;;;;20.63;14.80;;;7.60;1.00;;;;;;4961893;28;20868;-77
2021/03/24 00:40:13;;;;;;;18.75;15.05;;;7.60;1.00;;;;;;4957720;28;20259;-77
2021/03/24 00:42:39;;;;;;;16.95;13.75;;;7.70;1.00;;;;;;4954064;28;20917;-79
2021/03/24 00:45:07;;;;;;;17.05;13.57;;;7.60;1.00;;;;;;4961416;28;20209;-78
2021/03/24 00:47:34;;;;;;;21.85;16.50;;;7.60;1.00;;;;;;4961113;28;20228;-78
2021/03/24 00:50:00;;;;;;;18.23;14.38;;;7.60;1.00;;;;;;4966733;28;20227;-77
2021/03/24 00:52:27;;;;;;;15.65;12.77;;;7.60;1.00;;;;;;4969978;28;20244;-77
2021/03/24 00:54:53;;;;;;;22.60;14.95;;;7.60;1.00;;;;;;4957826;28;20228;-77
2021/03/24 00:57:19;;;;;;;18.70;14.40;;;7.60;1.00;;;;;;4956799;28;20335;-76
2021/03/24 00:59:46;;;;;;;16.85;13.02;;;7.60;1.00;;;;;;4953820;28;20224;-79
2021/03/24 01:02:12;;;;;;;20.20;14.68;;;7.60;1.00;;;;;;4966425;28;20751;-76
2021/03/24 01:04:38;;;;;;;19.23;15.35;;;7.70;1.00;;;;;;4951581;28;21262;-77
2021/03/24 01:07:06;;;;;;;16.65;14.82;;;7.70;1.00;;;;;;4959896;28;20634;-76
2021/03/24 01:09:33;;;;;;;22.38;15.65;;;7.60;1.00;;;;;;4961898;28;20232;-77
2021/03/24 01:11:59;;;;;;;20.42;15.43;;;7.60;1.00;;;;;;4976374;28;20243;-77
2021/03/24 01:14:25;;;;;;;18.25;15.30;;;7.60;1.00;;;;;;4967961;28;20244;-78
2021/03/24 01:16:51;;;;;;;18.30;14.05;;;7.60;1.00;;;;;;4967019;28;20250;-78
2021/03/24 01:19:17;;;;;;;17.85;13.32;;;7.60;1.00;;;;;;4962205;28;20220;-76
2021/03/24 01:21:44;;;;;;;21.02;15.27;;;7.50;1.00;;;;;;4964959;28;20547;-77
2021/03/24 01:24:10;;;;;;;19.77;14.70;;;7.40;1.00;;;;;;4967562;28;20260;-78
2021/03/24 01:26:37;;;;;;;16.58;13.75;;;7.40;1.00;;;;;;4963220;28;20243;-76
2021/03/24 01:29:03;;;;;;;18.88;13.95;;;7.40;1.00;;;;;;4966517;28;20226;-77
2021/03/24 01:31:32;;;;;;;16.73;12.85;;;7.40;1.00;;;;;;4972104;28;20224;-76
2021/03/24 01:34:00;;;;;;;18.83;13.95;;;7.50;1.00;;;;;;4964879;28;20249;-77
2021/03/24 01:36:28;;;;;;;17.45;13.20;;;7.40;1.00;;;;;;4959445;28;20224;-77
2021/03/24 01:38:54;;;;;;;15.98;14.13;;;7.40;1.00;;;;;;4965061;28;20234;-78
2021/03/24 01:41:23;;;;;;;15.70;12.35;;;7.50;1.00;;;;;;4963472;28;20312;-75
2021/03/24 01:43:50;;;;;;;16.23;13.00;;;7.50;1.00;;;;;;4972047;28;20212;-77
2021/03/24 01:46:38;;;;;;;14.57;12.93;;;7.50;1.00;;;;;;4967482;28;20220;-77
2021/03/24 01:49:14;;;;;;;18.05;12.50;;;7.50;1.00;;;;;;4966300;28;20394;-77
2021/03/24 01:51:43;;;;;;;18.40;13.27;;;7.50;1.00;;;;;;4973394;28;20220;-77
2021/03/24 01:54:14;;;;;;;17.00;12.25;;;7.40;1.00;;;;;;4964768;28;20247;-77
2021/03/24 01:56:43;;;;;;;18.98;12.18;;;7.40;1.00;;;;;;4951329;28;20247;-77
2021/03/24 01:59:12;;;;;;;14.70;12.07;;;7.40;1.00;;;;;;4985304;28;20220;-77
2021/03/24 02:01:39;;;;;;;18.02;12.60;;;7.40;1.00;;;;;;4969874;28;20983;-78
2021/03/24 02:04:06;;;;;;;17.80;14.48;;;7.50;1.00;;;;;;4966756;28;20247;-78
2021/03/24 02:06:39;;;;;;;17.25;12.43;;;7.40;1.00;;;;;;4965906;28;20220;-77
2021/03/24 02:09:20;;;;;;;18.75;12.95;;;7.40;1.00;;;;;;4969659;28;21162;-78
2021/03/24 02:11:53;;;;;;;16.90;12.93;;;7.40;1.00;;;;;;4972812;28;20299;-77
2021/03/24 02:14:26;;;;;;;15.60;12.23;;;7.40;1.00;;;;;;4969841;28;20291;-77
2021/03/24 02:16:53;;;;;;;15.02;11.55;;;7.40;1.00;;;;;;4971090;28;20232;-79
2021/03/24 02:19:31;;;;;;;18.42;12.77;;;7.40;1.00;;;;;;4972333;28;20231;-78
2021/03/24 02:21:59;;;;;;;16.63;13.68;;;7.40;1.00;;;;;;4979076;28;20239;-78
2021/03/24 02:24:36;;;;;;;15.00;11.32;;;7.40;1.00;;;;;;4976480;28;20402;-77
2021/03/24 02:27:12;;;;;;;13.32;11.93;;;7.40;1.00;;;;;;4979203;28;20970;-77
2021/03/24 02:29:45;;;;;;;15.30;12.40;;;7.50;1.00;;;;;;4954758;28;20266;-77
2021/03/24 02:32:14;;;;;;;18.70;13.05;;;7.50;1.00;;;;;;4963684;28;20276;-77
2021/03/24 02:34:42;;;;;;;15.02;12.05;;;7.50;1.00;;;;;;4980744;28;20732;-77
2021/03/24 02:37:10;;;;;;;16.80;13.55;;;7.50;1.00;;;;;;4972509;28;20234;-78
2021/03/24 02:39:38;;;;;;;16.75;13.05;;;7.50;1.00;;;;;;4971552;28;20239;-78
2021/03/24 02:42:06;;;;;;;14.93;12.23;;;7.50;1.00;;;;;;4973304;28;20232;-77
2021/03/24 02:44:35;;;;;;;15.13;13.30;;;7.50;1.00;;;;;;4973976;28;20272;-77
2021/03/24 02:47:05;;;;;;;16.30;12.60;;;7.40;1.00;;;;;;4973579;28;20225;-77
2021/03/24 02:49:32;;;;;;;15.57;11.70;;;7.40;1.00;;;;;;4973127;28;20988;-77
2021/03/24 02:51:58;;;;;;;19.13;12.90;;;7.50;1.00;;;;;;4971653;28;20254;-77
2021/03/24 02:54:29;;;;;;;17.45;12.75;;;7.50;1.00;;;;;;4981329;28;20224;-76
2021/03/24 02:56:55;;;;;;;19.00;13.75;;;7.50;1.00;;;;;;4972968;28;20232;-76
2021/03/24 02:59:22;;;;;;;19.10;13.40;;;7.50;1.00;;;;;;4970848;28;20224;-78
2021/03/24 03:01:54;;;;;;;18.75;13.73;;;7.50;1.00;;;;;;4967201;28;20283;-76
2021/03/24 03:04:27;;;;;;;16.17;13.13;;;7.50;1.00;;;;;;4956940;28;20288;-76
2021/03/24 03:06:56;;;;;;;16.90;13.02;;;7.50;1.00;;;;;;4965464;28;20736;-77
2021/03/24 03:09:28;;;;;;;16.85;12.60;;;7.50;1.00;;;;;;4973398;28;22323;-77
2021/03/24 03:12:00;;;;;;;15.75;13.07;;;7.50;1.00;;;;;;4972853;28;20232;-77
2021/03/24 03:14:36;;;;;;;18.10;14.10;;;7.60;1.00;;;;;;4954931;28;20788;-77
2021/03/24 03:17:08;;;;;;;15.35;12.75;;;7.60;1.00;;;;;;4976586;28;20603;-76
2021/03/24 03:19:38;;;;;;;22.05;13.90;;;7.50;1.00;;;;;;4953746;28;20287;-76
2021/03/24 03:22:06;;;;;;;15.40;12.77;;;7.50;1.00;;;;;;4979047;28;20239;-76
2021/03/24 03:24:38;;;;;;;16.92;13.07;;;7.50;1.00;;;;;;4980666;28;20254;-76
2021/03/24 03:27:08;;;;;;;18.33;14.00;;;7.50;1.00;;;;;;4980918;28;20228;-76
2021/03/24 03:29:34;;;;;;;17.67;13.57;;;7.40;1.00;;;;;;4976582;28;20220;-77
2021/03/24 03:32:04;;;;;;;18.40;13.90;;;7.40;1.00;;;;;;4974526;28;20288;-76
2021/03/24 03:34:32;;;;;;;18.25;13.73;;;7.40;1.00;;;;;;4976284;28;20224;-76
2021/03/24 03:37:00;;;;;;;20.15;13.38;;;7.40;1.00;;;;;;4972682;28;20231;-76
2021/03/24 03:39:29;;;;;;;15.02;12.23;;;7.40;1.00;;;;;;4973659;28;20230;-78
2021/03/24 03:42:00;;;;;;;17.85;13.70;;;7.40;1.00;;;;;;4972953;28;20235;-77
2021/03/24 03:44:28;;;;;;;20.50;12.98;;;7.40;1.00;;;;;;4971773;28;20228;-77
2021/03/24 03:46:57;;;;;;;19.85;14.32;;;7.40;1.00;;;;;;4973463;28;20228;-77
2021/03/24 03:49:24;;;;;;;14.88;12.98;;;7.40;1.00;;;;;;4975789;28;20228;-77
2021/03/24 03:52:07;;;;;;;15.93;13.82;;;7.30;1.00;;;;;;4976487;28;20232;-77
2021/03/24 03:54:36;;;;;;;15.15;12.43;;;7.30;1.00;;;;;;4974945;28;20271;-76
2021/03/24 03:57:10;;;;;;;16.42;13.50;;;7.30;1.00;;;;;;4954862;28;20239;-76
2021/03/24 03:59:40;;;;;;;19.17;13.60;;;7.30;1.00;;;;;;4967158;28;20239;-78
2021/03/24 04:02:10;;;;;;;17.95;13.75;;;7.30;1.00;;;;;;4969814;28;20231;-77
2021/03/24 04:04:41;;;;;;;14.90;13.32;;;7.40;1.00;;;;;;4982912;28;20227;-76
2021/03/24 04:07:13;;;;;;;18.08;13.65;;;7.30;1.00;;;;;;4991412;28;20575;-77
2021/03/24 04:09:43;;;;;;;15.88;14.18;;;7.30;1.00;;;;;;4992175;28;20239;-76
2021/03/24 04:12:13;;;;;;;19.00;14.38;;;7.30;1.00;;;;;;4992324;28;20208;-76
2021/03/24 04:14:41;;;;;;;19.67;13.80;;;7.30;1.00;;;;;;4992505;28;20336;-77
2021/03/24 04:17:10;;;;;;;20.95;12.82;;;7.30;1.00;;;;;;4989449;28;20248;-76
2021/03/24 04:19:43;;;;;;;17.75;14.18;;;7.20;1.00;;;;;;4994612;28;20212;-75
2021/03/24 04:22:11;;;;;;;20.88;14.30;;;7.10;1.00;;;;;;4994965;28;20242;-76
2021/03/24 04:24:42;;;;;;;17.40;14.43;;;7.20;1.00;;;;;;4996604;28;20208;-76
2021/03/24 04:27:12;;;;;;;20.98;15.18;;;7.20;1.00;;;;;;4990073;28;20252;-77
2021/03/24 04:29:43;;;;;;;17.13;14.38;;;7.20;1.00;;;;;;4991181;28;20259;-76
2021/03/24 04:32:11;;;;;;;18.95;13.57;;;7.20;1.00;;;;;;4994417;28;20217;-76
2021/03/24 04:34:40;;;;;;;21.65;13.90;;;7.20;1.00;;;;;;4985883;28;20208;-76
2021/03/24 04:37:11;;;;;;;20.65;14.60;;;7.10;1.00;;;;;;4989513;28;20240;-76
2021/03/24 04:39:41;;;;;;;17.85;15.05;;;7.10;1.00;;;;;;4988350;28;20268;-76
2021/03/24 04:42:12;;;;;;;18.50;14.27;;;7.00;1.00;;;;;;4990598;28;20211;-75
2021/03/24 04:44:40;;;;;;;17.10;14.32;;;7.00;1.00;;;;;;4986710;28;20220;-76
2021/03/24 04:47:12;;;;;;;21.45;16.08;;;7.00;1.00;;;;;;4982824;28;20228;-76
2021/03/24 04:49:44;;;;;;;23.42;15.70;;;7.00;1.00;;;;;;4984300;28;20259;-76
2021/03/24 04:52:12;;;;;;;20.13;16.08;;;7.00;1.00;;;;;;4980406;28;20282;-78
2021/03/24 04:54:43;;;;;;;23.85;14.68;;;6.90;1.00;;;;;;4976439;28;20330;-77
2021/03/24 04:57:23;;;;;;;18.20;15.02;;;6.90;1.00;;;;;;4971248;28;20292;-80
2021/03/24 04:59:56;;;;;;;22.20;15.60;;;6.90;1.00;;;;;;4973103;28;20224;-78
2021/03/24 05:02:27;;;;;;;22.70;15.80;;;6.90;1.00;;;;;;4975336;28;20236;-76
2021/03/24 05:05:01;;;;;;;23.23;16.75;;;6.90;1.00;;;;;;4969372;28;20247;-77
2021/03/24 05:07:35;;;;;;;23.00;16.15;;;6.80;1.00;;;;;;4979086;28;20236;-77
2021/03/24 05:10:03;;;;;;;20.23;15.00;;;6.90;1.00;;;;;;4973026;28;20628;-77
2021/03/24 05:12:37;;;;;;;20.77;14.80;;;6.90;1.00;;;;;;4970767;28;21217;-78
2021/03/24 05:15:10;;;;;;;53.20;38.08;;;7.00;1.00;;;;;;4972219;28;21126;-77
2021/03/24 05:17:41;;;;;;;19.20;15.20;;;7.00;1.00;;;;;;4954611;28;20342;-78
2021/03/24 05:20:21;;;;;;;20.40;16.30;;;7.00;1.00;;;;;;4956449;28;20224;-77
2021/03/24 05:22:48;;;;;;;19.33;15.73;;;7.00;1.00;;;;;;4975249;28;20227;-76
2021/03/24 05:25:21;;;;;;;25.73;19.48;;;7.00;1.00;;;;;;4974008;28;20236;-78
2021/03/24 05:27:52;;;;;;;23.98;17.42;;;7.10;1.00;;;;;;4970988;28;20252;-77
2021/03/24 05:30:23;;;;;;;26.40;18.55;;;7.10;1.00;;;;;;4974477;28;20232;-77
2021/03/24 05:32:55;;;;;;;22.35;16.92;;;7.10;1.00;;;;;;4957671;28;20243;-77
2021/03/24 05:35:31;;;;;;;27.50;18.90;;;7.10;1.00;;;;;;4972563;28;20213;-76
2021/03/24 05:38:03;;;;;;;25.25;18.20;;;7.10;1.00;;;;;;4958500;28;20239;-78
2021/03/24 05:40:49;;;;;;;27.00;17.95;;;7.20;1.00;;;;;;4973606;28;20679;-77
2021/03/24 05:43:31;;;;;;;24.25;19.58;;;7.10;1.00;;;;;;4977813;28;20268;-78
2021/03/24 05:46:06;;;;;;;26.98;20.08;;;7.20;1.00;;;;;;4959346;28;20275;-78
2021/03/24 05:48:50;;;;;;;25.95;20.02;;;7.20;1.00;;;;;;4978783;28;20282;-77
2021/03/24 05:51:27;;;;;;;28.10;19.90;;;7.30;1.00;;;;;;4973129;28;20239;-77
2021/03/24 05:54:06;;;;;;;23.48;17.95;;;7.30;1.00;;;;;;4975641;28;20235;-78
2021/03/24 05:57:07;;;;;;;26.08;17.58;;;7.30;1.00;;;;;;4972787;28;20235;-77
2021/03/24 05:59:43;;;;;;;24.58;19.30;;;7.30;1.00;;;;;;4932585;28;20509;-78
2021/03/24 06:02:15;;;;;;;27.75;20.40;;;7.30;1.00;;;;;;4977352;28;20219;-78
2021/03/24 06:04:47;;;;;;;25.13;18.40;;;7.40;1.00;;;;;;4975259;28;20217;-78
2021/03/24 06:08:00;;;;;;;25.17;19.15;;;7.40;1.00;;;;;;4978255;28;20228;-77
2021/03/24 06:11:05;;;;;;;27.25;20.35;;;7.50;1.00;;;;;;4975178;28;20234;-77
2021/03/24 06:14:09;;;;;;;25.55;20.75;;;7.60;1.00;;;;;;4939848;28;20236;-78
2021/03/24 06:17:10;;;;;;;29.83;20.80;;;7.70;1.00;;;;;;4947519;28;21037;-76
2021/03/24 06:19:54;;;;;;;26.60;20.30;;;7.70;1.00;;;;;;4977747;28;21023;-76
2021/03/24 06:22:34;;;;;;;34.85;22.55;;;7.80;1.00;;;;;;4975897;28;20322;-76
2021/03/24 06:25:12;;;;;;;29.85;20.90;;;7.80;1.00;;;;;;4977448;28;20280;-77
2021/03/24 06:28:17;;;;;;;30.20;20.98;;;7.80;1.00;;;;;;4972087;28;21368;-77
2021/03/24 06:30:53;;;;;;;29.15;21.35;;;7.90;1.00;;;;;;4958165;28;21586;-79
2021/03/24 06:33:43;;;;;;;30.00;22.67;;;7.90;1.00;;;;;;4946082;28;20263;-77
2021/03/24 06:36:38;;;;;;;30.35;22.20;;;8.00;1.00;;;;;;4960031;28;21059;-78
2021/03/24 06:39:30;;;;;;;31.55;22.75;;;8.10;1.00;;;;;;4945554;28;20738;-77
2021/03/24 06:42:22;;;;;;;36.70;25.50;;;8.10;1.00;;;;;;4958276;28;20229;-79
2021/03/24 06:45:16;;;;;;;35.85;24.70;;;8.10;1.00;;;;;;4962668;28;20232;-78
2021/03/24 06:47:51;;;;;;;37.97;26.92;;;8.20;1.00;;;;;;4958564;28;20345;-78
2021/03/24 06:50:39;;;;;;;33.45;26.05;;;8.20;1.00;;;;;;4967248;28;21102;-79
2021/03/24 06:53:35;;;;;;;36.10;26.45;;;8.20;1.00;;;;;;4967144;28;20239;-77
2021/03/24 06:56:27;;;;;;;38.30;26.73;;;8.30;1.00;;;;;;4960685;28;20330;-77
2021/03/24 06:59:33;;;;;;;41.22;29.35;;;8.30;1.00;;;;;;4959506;28;20294;-80
2021/03/24 07:02:15;;;;;;;36.33;28.17;;;8.40;1.00;;;;;;4926945;28;20229;-79
2021/03/24 07:05:11;;;;;;;37.67;31.13;;;8.50;1.00;;;;;;4968731;28;20224;-77
2021/03/24 07:08:09;;;;;;;43.38;32.75;;;8.60;1.00;;;;;;4957582;28;20239;-79
2021/03/24 07:10:44;;;;;;;42.00;33.97;;;8.70;1.00;;;;;;4965248;28;20317;-77
2021/03/24 07:13:50;;;;;;;43.10;33.47;;;8.70;1.00;;;;;;4964382;28;20281;-77
2021/03/24 07:16:27;;;;;;;46.38;35.38;;;8.80;1.00;;;;;;4956922;28;20318;-78
2021/03/24 07:19:31;;;;;;;47.30;34.40;;;8.80;1.00;;;;;;4951110;28;20219;-77
2021/03/24 07:22:17;;;;;;;51.67;36.47;;;8.90;1.00;;;;;;4959467;28;20270;-78
2021/03/24 07:25:11;;;;;;;45.88;32.60;;;8.90;1.00;;;;;;4957001;28;20258;-78
2021/03/24 07:27:57;;;;;;;46.50;35.22;;;8.90;1.00;;;;;;4959471;28;20719;-78
2021/03/24 07:30:35;;;;;;;46.40;34.17;;;9.00;1.00;;;;;;4959790;28;21753;-78
2021/03/24 07:33:04;;;;;;;51.20;35.97;;;9.10;1.00;;;;;;4964478;28;20293;-78
2021/03/24 07:35:39;;;;;;;43.65;34.47;;;9.10;1.00;;;;;;4959475;28;20220;-78
2021/03/24 07:38:38;;;;;;;47.58;35.00;;;9.20;1.00;;;;;;4957261;28;20232;-77
2021/03/24 07:41:30;;;;;;;49.15;35.45;;;9.30;1.00;;;;;;4951966;28;20239;-77
2021/03/24 07:44:07;;;;;;;50.22;36.55;;;9.40;1.00;;;;;;4952126;28;20325;-77
2021/03/24 07:46:56;;;;;;;46.50;37.30;;;9.40;1.00;;;;;;4955868;28;20235;-77
2021/03/24 07:49:50;;;;;;;46.83;35.13;;;9.40;1.00;;;;;;4957307;28;21236;-75
2021/03/24 07:52:39;;;;;;;51.92;38.25;;;9.40;1.00;;;;;;4951022;28;20224;-75
2021/03/24 07:55:15;;;;;;;53.53;38.45;;;9.40;1.00;;;;;;4949959;28;20265;-75
2021/03/24 07:57:48;;;;;;;47.65;38.25;;;9.50;1.00;;;;;;4954486;28;20231;-74
2021/03/24 08:00:21;;;;;;;52.80;41.53;;;9.50;1.00;;;;;;4962681;28;20226;-75
2021/03/24 08:02:58;;;;;;;54.13;40.60;;;9.60;1.00;;;;;;4947229;28;20252;-74
2021/03/24 08:05:37;;;;;;;50.30;39.97;;;9.70;1.00;;;;;;4946259;28;20237;-76
2021/03/24 08:08:12;;;;;;;52.00;39.38;;;9.80;1.00;;;;;;4948188;28;20271;-74
2021/03/24 08:10:51;;;;;;;54.35;40.20;;;9.90;1.00;;;;;;4949556;28;20218;-78
2021/03/24 08:13:43;;;;;;;57.03;41.53;;;10.00;1.00;;;;;;4937222;28;20244;-74
2021/03/24 08:16:28;;;;;;;51.90;39.35;;;10.10;1.00;;;;;;4948388;28;21906;-75
2021/03/24 08:19:12;;;;;;;54.80;42.17;;;10.30;1.00;;;;;;4948108;28;20320;-76
2021/03/24 08:21:51;;;;;;;53.70;39.38;;;10.50;1.00;;;;;;4948031;28;20326;-81
2021/03/24 08:24:50;;;;;;;50.22;39.58;;;10.60;1.00;;;;;;4947705;28;20226;-79
2021/03/24 08:27:23;;;;;;;52.28;39.28;;;10.70;1.00;;;;;;4935754;28;20295;-80
2021/03/24 08:30:01;;;;;;;48.30;39.38;;;10.80;1.00;;;;;;4957468;28;20231;-78
2021/03/24 08:32:52;;;;;;;44.58;36.55;;;10.80;1.00;;;;;;4936147;28;20810;-80
2021/03/24 08:35:36;;;;;;;53.25;39.88;;;10.80;1.00;;;;;;4955514;28;20237;-76
2021/03/24 08:38:28;;;;;;;46.53;37.85;;;10.80;1.00;;;;;;4961784;28;20252;-78
2021/03/24 08:41:26;;;;;;;57.75;40.30;;;10.90;1.00;;;;;;4968562;28;20249;-78
2021/03/24 08:44:10;;;;;;;47.28;37.85;;;10.90;1.00;;;;;;4966588;28;20222;-80
2021/03/24 08:46:40;;;;;;;54.95;39.95;;;10.80;1.00;;;;;;4951500;28;20282;-79
2021/03/24 08:49:12;;;;;;;55.77;40.13;;;10.90;1.00;;;;;;4958058;28;20263;-79
2021/03/24 08:51:56;;;;;;;49.03;37.95;;;11.00;1.00;;;;;;4957158;28;20476;-80
2021/03/24 08:54:59;;;;;;;47.70;36.57;;;11.10;1.00;;;;;;4957543;28;20807;-77
2021/03/24 08:57:43;;;;;;;45.60;37.70;;;11.10;1.00;;;;;;4935811;28;20472;-78
2021/03/24 09:00:18;;;;;;;50.40;38.47;;;11.20;1.00;;;;;;4958771;28;20455;-79
2021/03/24 09:02:59;;;;;;;50.03;36.00;;;11.20;1.00;;;;;;4935529;28;20450;-77
2021/03/24 09:05:30;;;;;;;48.20;36.93;;;11.30;1.00;;;;;;4953064;28;20456;-78
2021/03/24 09:08:24;;;;;;;49.63;38.00;;;11.20;1.00;;;;;;4959146;28;20480;-79
2021/03/24 09:11:08;;;;;;;46.13;37.13;;;11.10;1.00;;;;;;4962711;28;20465;-79
2021/03/24 09:13:42;;;;;;;45.53;37.80;;;11.20;1.00;;;;;;4957653;28;20438;-77
2021/03/24 09:16:39;;;;;;;52.87;37.97;;;11.30;1.00;;;;;;4954052;28;20451;-84
2021/03/24 09:19:18;;;;;;;52.50;38.00;;;11.50;1.00;;;;;;4963794;28;20470;-78
2021/03/24 09:21:54;;;;;;;48.37;37.50;;;11.70;1.00;;;;;;4954774;28;21321;-77
2021/03/24 09:24:39;;;;;;;48.73;38.37;;;11.80;1.00;;;;;;4959470;28;20436;-83
2021/03/24 09:27:35;;;;;;;54.03;40.17;;;11.90;1.00;;;;;;4965378;28;20448;-83
2021/03/24 09:30:31;;;;;;;51.10;37.93;;;12.10;1.00;;;;;;4894805;28;20543;-82
2021/03/24 09:33:15;;;;;;;52.70;37.13;;;11.90;1.00;;;;;;4967087;28;20452;-81
2021/03/24 09:35:46;;;;;;;56.30;38.87;;;11.90;1.00;;;;;;4948944;28;22051;-79
2021/03/24 09:38:19;;;;;;;51.70;38.57;;;11.90;1.00;;;;;;4965285;28;20563;-81
2021/03/24 09:40:49;;;;;;;53.00;37.40;;;11.90;1.00;;;;;;4974832;28;20496;-82
2021/03/24 09:43:23;;;;;;;50.37;38.40;;;12.00;1.00;;;;;;4987447;28;20424;-81
2021/03/24 09:46:01;;;;;;;49.60;37.80;;;12.10;1.00;;;;;;4969466;28;21300;-78
2021/03/24 09:48:28;;;;;;;55.00;38.10;;;12.20;1.00;;;;;;4963941;28;20455;-76
2021/03/24 09:51:05;;;;;;;50.33;37.80;;;12.20;1.00;;;;;;4978161;28;21199;-79
2021/03/24 09:53:37;;;;;;;52.23;38.73;;;12.30;1.00;;;;;;4978393;28;20849;-79
2021/03/24 09:56:07;;;;;;;49.10;38.17;;;12.20;1.00;;;;;;4967517;28;20444;-82
2021/03/24 09:59:00;;;;;;;56.97;37.50;;;12.20;1.00;;;;;;4949313;28;20976;-79
2021/03/24 10:01:47;;;;;;;51.63;36.40;;;12.10;1.00;;;;;;4947236;28;20746;-78
2021/03/24 10:04:24;;;;;;;48.10;36.23;;;12.10;1.00;;;;;;4940510;28;21371;-79
2021/03/24 10:07:01;;;;;;;51.47;37.80;;;12.00;1.00;;;;;;4961935;28;20479;-79
2021/03/24 10:09:34;;;;;;;54.20;40.10;;;12.10;1.00;;;;;;4958792;28;20491;-79
2021/03/24 10:12:10;;;;;;;51.40;37.23;;;12.10;1.00;;;;;;4960516;28;20574;-77
2021/03/24 10:14:39;;;;;;;50.73;38.93;;;12.20;1.00;;;;;;4959618;28;21710;-78
2021/03/24 10:17:13;;;;;;;53.20;37.67;;;12.10;1.00;;;;;;4961093;28;20563;-77
2021/03/24 10:19:44;;;;;;;50.87;37.77;;;12.10;1.00;;;;;;4966680;28;21574;-76
2021/03/24 10:22:16;;;;;;;47.53;38.30;;;12.00;1.00;;;;;;4961696;28;20474;-78
2021/03/24 10:24:45;;;;;;;45.00;34.87;;;12.00;1.00;;;;;;4962327;28;20441;-79
2021/03/24 10:27:17;;;;;;;48.53;36.13;;;12.00;1.00;;;;;;4960378;28;20466;-76
2021/03/24 10:29:48;;;;;;;44.63;36.33;;;12.00;1.00;;;;;;4964398;28;20546;-78
2021/03/24 10:32:26;;;;;;;49.80;35.00;;;12.00;1.00;;;;;;4964066;28;20489;-78
2021/03/24 10:34:59;;;;;;;49.47;37.27;;;12.10;1.00;;;;;;4965935;28;20495;-79
2021/03/24 10:37:33;;;;;;;47.20;34.97;;;12.30;1.00;;;;;;4969313;28;20459;-80
2021/03/24 10:40:04;;;;;;;48.43;36.73;;;12.50;1.00;;;;;;4964542;28;21001;-77
2021/03/24 10:42:38;;;;;;;49.60;37.37;;;12.60;1.00;;;;;;4963676;28;20483;-79
2021/03/24 10:45:16;;;;;;;49.43;38.87;;;12.30;1.00;;;;;;4959648;28;20420;-77
2021/03/24 10:47:48;;;;;;;52.60;37.03;;;12.30;1.00;;;;;;4961878;28;21398;-78
2021/03/24 10:50:36;;;;;;;49.60;37.17;;;12.30;1.00;;;;;;4957785;28;20456;-78
2021/03/24 10:53:08;;;;;;;51.43;37.27;;;12.40;1.00;;;;;;4964900;28;20483;-76
2021/03/24 10:55:38;;;;;;;47.10;35.77;;;12.30;1.00;;;;;;4953397;28;20448;-77
2021/03/24 10:58:32;;;;;;;47.83;37.97;;;12.40;1.00;;;;;;4959009;28;20452;-76
2021/03/24 11:01:09;;;;;;;49.70;35.87;;;12.20;1.00;;;;;;4966784;28;20405;-76
2021/03/24 11:03:50;;;;;;;47.43;34.90;;;12.00;1.00;;;;;;4969326;28;20428;-76
2021/03/24 11:06:21;;;;;;;45.67;35.43;;;12.00;1.00;;;;;;4964110;28;20452;-77
2021/03/24 11:08:58;;;;;;;44.37;34.13;;;12.10;1.00;;;;;;4962732;28;20435;-78
2021/03/24 11:11:28;;;;;;;41.57;33.83;;;12.30;1.00;;;;;;4968228;28;20440;-76
2021/03/24 11:13:58;;;;;;;42.03;31.17;;;12.30;1.00;;;;;;4963528;28;20548;-78
2021/03/24 11:16:27;;;;;;;44.30;33.40;;;12.30;1.00;;;;;;4967221;28;20503;-78
2021/03/24 11:19:05;;;;;;;43.33;32.80;;;12.40;1.00;;;;;;4978180;28;20474;-77
2021/03/24 11:21:42;;;;;;;44.73;32.33;;;12.50;1.00;;;;;;4961500;28;20713;-76
2021/03/24 11:24:20;;;;;;;41.23;33.30;;;12.60;1.00;;;;;;4981817;28;20427;-76
2021/03/24 11:27:02;;;;;;;42.43;33.60;;;12.80;1.00;;;;;;4976922;28;20455;-76
2021/03/24 11:29:31;;;;;;;40.70;30.83;;;13.60;1.00;;;;;;4973421;28;20425;-75
2021/03/24 11:32:03;;;;;;;37.70;30.83;;;14.10;1.00;;;;;;4975089;28;20427;-74
2021/03/24 11:34:39;;;;;;;37.10;28.60;;;14.50;1.00;;;;;;4968302;28;20551;-74
2021/03/24 11:37:16;;;;;;;34.77;30.70;;;15.30;1.00;;;;;;4964416;28;20460;-74
2021/03/24 11:39:47;;;;;;;38.37;28.90;;;16.50;1.00;;;;;;4959527;28;20615;-73
2021/03/24 11:42:17;;;;;;;35.13;29.37;;;17.10;1.00;;;;;;4960419;28;20446;-75
2021/03/24 11:44:47;;;;;;;32.90;27.67;;;17.80;1.00;;;;;;4958958;28;20478;-75
2021/03/24 11:47:42;;;;;;;34.00;26.93;;;19.70;1.00;;;;;;4949645;28;20468;-73
2021/03/24 11:50:14;;;;;;;30.00;26.33;;;20.80;1.00;;;;;;4944899;28;20516;-75
2021/03/24 11:52:49;;;;;;;32.13;28.63;;;20.70;1.00;;;;;;4947748;28;20471;-76
2021/03/24 11:55:49;;;;;;;32.10;28.70;;;20.10;1.00;;;;;;4948085;28;20467;-74
2021/03/24 11:58:51;;;;;;;32.53;27.40;;;19.80;1.00;;;;;;4940027;28;20443;-73
2021/03/24 12:01:35;;;;;;;33.77;28.50;;;19.00;1.00;;;;;;4946817;28;20470;-77
2021/03/24 12:04:26;;;;;;;33.20;29.20;;;18.50;1.00;;;;;;4925481;28;20646;-73
2021/03/24 12:07:07;;;;;;;36.63;29.30;;;18.60;1.00;;;;;;4944594;28;20443;-76
2021/03/24 12:09:37;;;;;;;39.97;29.47;;;18.40;1.00;;;;;;4947739;28;20801;-76
2021/03/24 12:12:06;;;;;;;32.10;28.63;;;18.60;1.00;;;;;;4940710;28;20455;-75
2021/03/24 12:14:33;;;;;;;33.33;29.80;;;19.00;1.00;;;;;;4944257;28;21543;-75
2021/03/24 12:17:01;;;;;;;35.97;30.67;;;18.60;1.00;;;;;;4946129;28;20470;-73
2021/03/24 12:19:34;;;;;;;38.57;31.17;;;18.00;1.00;;;;;;4939158;28;20496;-74
2021/03/24 12:22:04;;;;;;;37.23;32.40;;;17.70;1.00;;;;;;4924049;28;21412;-76
2021/03/24 12:24:35;;;;;;;40.37;32.70;;;17.80;1.00;;;;;;4941450;28;21009;-74
2021/03/24 12:27:16;;;;;;;38.00;33.93;;;17.90;1.00;;;;;;4944145;28;20526;-75
2021/03/24 12:29:45;;;;;;;36.77;32.57;;;18.00;1.00;;;;;;4942724;28;21553;-74
2021/03/24 12:32:23;;;;;;;36.23;32.03;;;18.30;1.00;;;;;;4940521;28;21126;-72
2021/03/24 12:34:50;;;;;;;40.10;31.50;;;17.70;1.00;;;;;;4946643;28;20478;-76
2021/03/24 12:37:27;;;;;;;41.53;33.10;;;17.30;1.00;;;;;;4926396;28;20453;-77
2021/03/24 12:39:54;;;;;;;35.73;31.20;;;17.20;1.00;;;;;;4949283;28;20537;-79
2021/03/24 12:42:23;;;;;;;39.67;32.73;;;16.70;1.00;;;;;;4947682;28;20454;-77
2021/03/24 12:44:49;;;;;;;34.33;30.63;;;16.70;1.00;;;;;;4950110;28;20534;-76
2021/03/24 12:47:34;;;;;;;35.97;31.97;;;18.00;1.00;;;;;;4947627;28;21282;-77
2021/03/24 12:50:27;;;;;;;36.13;31.73;;;20.00;1.00;;;;;;4947261;28;21796;-77
2021/03/24 12:53:13;;;;;;;35.37;31.33;;;21.00;1.00;;;;;;4949740;28;20964;-77
2021/03/24 12:55:40;;;;;;;33.07;29.47;;;22.00;1.00;;;;;;4952210;28;20488;-78
2021/03/24 12:58:33;;;;;;;34.17;30.57;;;22.40;1.00;;;;;;4950626;28;20595;-76
2021/03/24 13:01:07;;;;;;;31.67;28.43;;;23.30;1.00;;;;;;4952603;28;20444;-78
2021/03/24 13:04:01;;;;;;;31.73;28.50;;;24.00;1.00;;;;;;4955225;28;20953;-78
2021/03/24 13:06:47;;;;;;;30.03;27.03;;;24.20;1.00;;;;;;4955372;28;20509;-77
2021/03/24 13:09:23;;;;;;;30.30;27.37;;;24.80;1.00;;;;;;4956733;28;21241;-76
2021/03/24 13:11:56;;;;;;;30.23;27.10;;;25.60;1.00;;;;;;4953869;28;20471;-76
2021/03/24 13:14:33;;;;;;;31.30;28.00;;;25.50;1.00;;;;;;4954937;28;21126;-76
2021/03/24 13:17:03;;;;;;;32.60;29.17;;;25.90;1.00;;;;;;4951764;28;20473;-77
2021/03/24 13:19:37;;;;;;;31.70;28.30;;;26.30;1.00;;;;;;4955483;28;20513;-77
2021/03/24 13:22:10;;;;;;;31.50;28.27;;;27.20;1.00;;;;;;4958243;28;20422;-79
2021/03/24 13:24:54;;;;;;;31.80;28.70;;;27.60;1.00;;;;;;4959849;28;20841;-80
2021/03/24 13:27:52;;;;;;;32.47;29.47;;;26.40;1.00;;;;;;4962575;28;20518;-73